sensor_id;sensor_type;location;lat;lon;timestamp;P1;durP1;ratioP1;P2;durP2;ratioP2
38465;SDS011;24244;51.950;5.902;2023-04-24T00:01:51;6.68;;;3.33;;
38465;SDS011;24244;51.950;5.902;2023-04-24T00:04:18;5.40;;;3.00;;
38465;SDS011;24244;51.950;5.902;2023-04-24T00:06:46;5.57;;;3.22;;
38465;SDS011;24244;51.950;5.902;2023-04-24T00:09:15;6.22;;;3.25;;
38465;SDS011;24244;51.950;5.902;2023-04-24T00:11:45;6.80;;;4.10;;
38465;SDS011;24244;51.950;5.902;2023-04-24T00:14:12;5.88;;;3.20;;
38465;SDS011;24244;51.950;5.902;2023-04-24T00:16:40;5.32;;;3.08;;
38465;SDS011;24244;51.950;5.902;2023-04-24T00:19:10;4.95;;;2.75;;
38465;SDS011;24244;51.950;5.902;2023-04-24T00:21:39;4.63;;;2.40;;
38465;SDS011;24244;51.950;5.902;2023-04-24T00:24:07;3.90;;;2.05;;
38465;SDS011;24244;51.950;5.902;2023-04-24T00:26:39;3.90;;;1.88;;
38465;SDS011;24244;51.950;5.902;2023-04-24T00:29:07;4.03;;;1.70;;
38465;SDS011;24244;51.950;5.902;2023-04-24T00:31:46;3.58;;;1.90;;
38465;SDS011;24244;51.950;5.902;2023-04-24T00:34:14;3.53;;;1.70;;
38465;SDS011;24244;51.950;5.902;2023-04-24T00:36:41;3.20;;;1.70;;
38465;SDS011;24244;51.950;5.902;2023-04-24T00:39:08;3.47;;;1.75;;
38465;SDS011;24244;51.950;5.902;2023-04-24T00:41:36;2.67;;;1.27;;
38465;SDS011;24244;51.950;5.902;2023-04-24T00:44:06;3.13;;;1.25;;
38465;SDS011;24244;51.950;5.902;2023-04-24T00:46:33;2.80;;;1.38;;
38465;SDS011;24244;51.950;5.902;2023-04-24T00:49:00;2.10;;;0.98;;
38465;SDS011;24244;51.950;5.902;2023-04-24T00:51:30;2.53;;;1.10;;
38465;SDS011;24244;51.950;5.902;2023-04-24T00:54:02;1.83;;;1.05;;
38465;SDS011;24244;51.950;5.902;2023-04-24T00:56:33;1.75;;;0.82;;
38465;SDS011;24244;51.950;5.902;2023-04-24T00:59:12;2.72;;;1.20;;
38465;SDS011;24244;51.950;5.902;2023-04-24T01:01:46;3.17;;;1.90;;
38465;SDS011;24244;51.950;5.902;2023-04-24T01:07:18;7.13;;;4.00;;
38465;SDS011;24244;51.950;5.902;2023-04-24T01:09:47;5.70;;;3.63;;
38465;SDS011;24244;51.950;5.902;2023-04-24T01:12:18;7.95;;;4.72;;
38465;SDS011;24244;51.950;5.902;2023-04-24T01:14:48;9.57;;;5.72;;
38465;SDS011;24244;51.950;5.902;2023-04-24T01:17:16;8.38;;;4.78;;
38465;SDS011;24244;51.950;5.902;2023-04-24T01:19:44;9.30;;;5.45;;
38465;SDS011;24244;51.950;5.902;2023-04-24T01:22:13;11.77;;;6.40;;
38465;SDS011;24244;51.950;5.902;2023-04-24T01:24:40;11.48;;;5.78;;
38465;SDS011;24244;51.950;5.902;2023-04-24T01:27:09;9.73;;;5.53;;
38465;SDS011;24244;51.950;5.902;2023-04-24T01:29:36;10.90;;;5.95;;
38465;SDS011;24244;51.950;5.902;2023-04-24T01:32:04;10.00;;;6.20;;
38465;SDS011;24244;51.950;5.902;2023-04-24T01:34:31;11.77;;;6.15;;
38465;SDS011;24244;51.950;5.902;2023-04-24T01:36:59;11.77;;;5.95;;
38465;SDS011;24244;51.950;5.902;2023-04-24T01:39:27;10.60;;;5.40;;
38465;SDS011;24244;51.950;5.902;2023-04-24T01:41:55;10.13;;;5.25;;
38465;SDS011;24244;51.950;5.902;2023-04-24T01:44:22;9.88;;;5.68;;
38465;SDS011;24244;51.950;5.902;2023-04-24T01:46:49;8.70;;;4.85;;
38465;SDS011;24244;51.950;5.902;2023-04-24T01:49:17;8.60;;;4.63;;
38465;SDS011;24244;51.950;5.902;2023-04-24T01:51:44;9.27;;;4.95;;
38465;SDS011;24244;51.950;5.902;2023-04-24T01:54:10;10.73;;;5.45;;
38465;SDS011;24244;51.950;5.902;2023-04-24T01:56:40;9.13;;;5.25;;
38465;SDS011;24244;51.950;5.902;2023-04-24T01:59:12;8.77;;;4.57;;
38465;SDS011;24244;51.950;5.902;2023-04-24T02:01:39;8.82;;;5.20;;
38465;SDS011;24244;51.950;5.902;2023-04-24T02:04:06;11.60;;;6.10;;
38465;SDS011;24244;51.950;5.902;2023-04-24T02:06:35;9.32;;;5.43;;
38465;SDS011;24244;51.950;5.902;2023-04-24T02:09:02;10.32;;;6.15;;
38465;SDS011;24244;51.950;5.902;2023-04-24T02:11:29;10.27;;;6.35;;
38465;SDS011;24244;51.950;5.902;2023-04-24T02:13:58;11.93;;;6.60;;
38465;SDS011;24244;51.950;5.902;2023-04-24T02:16:26;12.10;;;6.68;;
38465;SDS011;24244;51.950;5.902;2023-04-24T02:18:56;12.63;;;6.07;;
38465;SDS011;24244;51.950;5.902;2023-04-24T02:21:23;10.70;;;5.95;;
38465;SDS011;24244;51.950;5.902;2023-04-24T02:23:50;13.75;;;7.35;;
38465;SDS011;24244;51.950;5.902;2023-04-24T02:26:16;10.57;;;6.68;;
38465;SDS011;24244;51.950;5.902;2023-04-24T02:28:44;12.88;;;7.88;;
38465;SDS011;24244;51.950;5.902;2023-04-24T02:31:13;12.45;;;6.70;;
38465;SDS011;24244;51.950;5.902;2023-04-24T02:33:40;12.02;;;6.90;;
38465;SDS011;24244;51.950;5.902;2023-04-24T02:36:07;16.70;;;8.07;;
38465;SDS011;24244;51.950;5.902;2023-04-24T02:38:34;13.50;;;6.90;;
38465;SDS011;24244;51.950;5.902;2023-04-24T02:41:01;14.27;;;7.20;;
38465;SDS011;24244;51.950;5.902;2023-04-24T02:43:29;10.50;;;6.35;;
38465;SDS011;24244;51.950;5.902;2023-04-24T02:45:56;12.63;;;6.55;;
38465;SDS011;24244;51.950;5.902;2023-04-24T02:48:24;11.88;;;6.45;;
38465;SDS011;24244;51.950;5.902;2023-04-24T02:50:51;12.68;;;6.78;;
38465;SDS011;24244;51.950;5.902;2023-04-24T02:53:18;10.45;;;5.80;;
38465;SDS011;24244;51.950;5.902;2023-04-24T02:55:46;10.68;;;5.97;;
38465;SDS011;24244;51.950;5.902;2023-04-24T02:58:13;10.20;;;5.40;;
38465;SDS011;24244;51.950;5.902;2023-04-24T03:00:40;10.90;;;6.00;;
38465;SDS011;24244;51.950;5.902;2023-04-24T03:03:06;11.15;;;5.88;;
38465;SDS011;24244;51.950;5.902;2023-04-24T03:05:35;11.10;;;6.38;;
38465;SDS011;24244;51.950;5.902;2023-04-24T03:08:02;11.07;;;5.72;;
38465;SDS011;24244;51.950;5.902;2023-04-24T03:10:28;11.00;;;5.78;;
38465;SDS011;24244;51.950;5.902;2023-04-24T03:12:55;11.98;;;6.22;;
38465;SDS011;24244;51.950;5.902;2023-04-24T03:15:22;9.68;;;5.85;;
38465;SDS011;24244;51.950;5.902;2023-04-24T03:17:49;10.93;;;5.45;;
38465;SDS011;24244;51.950;5.902;2023-04-24T03:20:16;8.88;;;4.95;;
38465;SDS011;24244;51.950;5.902;2023-04-24T03:22:44;8.73;;;5.10;;
38465;SDS011;24244;51.950;5.902;2023-04-24T03:25:11;10.60;;;6.00;;
38465;SDS011;24244;51.950;5.902;2023-04-24T03:27:38;8.57;;;5.10;;
38465;SDS011;24244;51.950;5.902;2023-04-24T03:30:06;10.50;;;6.05;;
38465;SDS011;24244;51.950;5.902;2023-04-24T03:32:33;12.25;;;6.97;;
38465;SDS011;24244;51.950;5.902;2023-04-24T03:35:00;10.93;;;7.10;;
38465;SDS011;24244;51.950;5.902;2023-04-24T03:37:27;13.05;;;7.22;;
38465;SDS011;24244;51.950;5.902;2023-04-24T03:39:55;14.05;;;7.68;;
38465;SDS011;24244;51.950;5.902;2023-04-24T03:42:22;16.70;;;8.05;;
38465;SDS011;24244;51.950;5.902;2023-04-24T03:44:49;15.90;;;8.23;;
38465;SDS011;24244;51.950;5.902;2023-04-24T03:47:16;15.77;;;8.63;;
38465;SDS011;24244;51.950;5.902;2023-04-24T03:49:43;14.55;;;9.57;;
38465;SDS011;24244;51.950;5.902;2023-04-24T03:52:10;16.35;;;9.43;;
38465;SDS011;24244;51.950;5.902;2023-04-24T03:54:37;18.63;;;10.07;;
38465;SDS011;24244;51.950;5.902;2023-04-24T03:57:05;17.92;;;9.30;;
38465;SDS011;24244;51.950;5.902;2023-04-24T03:59:31;18.60;;;10.40;;
38465;SDS011;24244;51.950;5.902;2023-04-24T04:01:58;15.15;;;7.88;;
38465;SDS011;24244;51.950;5.902;2023-04-24T04:04:25;17.95;;;10.63;;
38465;SDS011;24244;51.950;5.902;2023-04-24T04:06:52;18.30;;;10.65;;
38465;SDS011;24244;51.950;5.902;2023-04-24T04:09:19;16.15;;;8.60;;
38465;SDS011;24244;51.950;5.902;2023-04-24T04:11:46;17.80;;;9.57;;
38465;SDS011;24244;51.950;5.902;2023-04-24T04:14:14;15.18;;;9.38;;
38465;SDS011;24244;51.950;5.902;2023-04-24T04:16:41;16.13;;;9.65;;
38465;SDS011;24244;51.950;5.902;2023-04-24T04:19:08;16.20;;;10.05;;
38465;SDS011;24244;51.950;5.902;2023-04-24T04:21:35;15.48;;;8.68;;
38465;SDS011;24244;51.950;5.902;2023-04-24T04:24:02;15.80;;;9.27;;
38465;SDS011;24244;51.950;5.902;2023-04-24T04:26:29;14.35;;;8.80;;
38465;SDS011;24244;51.950;5.902;2023-04-24T04:28:59;14.45;;;8.25;;
38465;SDS011;24244;51.950;5.902;2023-04-24T04:31:28;13.25;;;7.80;;
38465;SDS011;24244;51.950;5.902;2023-04-24T04:33:55;15.48;;;8.38;;
38465;SDS011;24244;51.950;5.902;2023-04-24T04:36:22;14.77;;;8.05;;
38465;SDS011;24244;51.950;5.902;2023-04-24T04:38:50;12.40;;;7.13;;
38465;SDS011;24244;51.950;5.902;2023-04-24T04:41:16;12.55;;;7.68;;
38465;SDS011;24244;51.950;5.902;2023-04-24T04:43:44;14.82;;;7.90;;
38465;SDS011;24244;51.950;5.902;2023-04-24T04:46:12;14.95;;;9.18;;
38465;SDS011;24244;51.950;5.902;2023-04-24T04:48:40;12.40;;;6.20;;
38465;SDS011;24244;51.950;5.902;2023-04-24T04:51:07;14.38;;;8.23;;
38465;SDS011;24244;51.950;5.902;2023-04-24T04:53:34;13.93;;;7.10;;
38465;SDS011;24244;51.950;5.902;2023-04-24T04:56:02;12.10;;;6.72;;
38465;SDS011;24244;51.950;5.902;2023-04-24T04:58:29;15.43;;;7.35;;
38465;SDS011;24244;51.950;5.902;2023-04-24T05:00:55;11.48;;;7.28;;
38465;SDS011;24244;51.950;5.902;2023-04-24T05:03:23;10.10;;;5.93;;
38465;SDS011;24244;51.950;5.902;2023-04-24T05:05:52;12.60;;;7.32;;
38465;SDS011;24244;51.950;5.902;2023-04-24T05:08:19;12.57;;;6.55;;
38465;SDS011;24244;51.950;5.902;2023-04-24T05:10:53;13.45;;;7.40;;
38465;SDS011;24244;51.950;5.902;2023-04-24T05:13:19;13.93;;;6.47;;
38465;SDS011;24244;51.950;5.902;2023-04-24T05:16:01;12.10;;;6.43;;
38465;SDS011;24244;51.950;5.902;2023-04-24T05:18:28;10.70;;;6.68;;
38465;SDS011;24244;51.950;5.902;2023-04-24T05:20:56;12.10;;;7.07;;
38465;SDS011;24244;51.950;5.902;2023-04-24T05:23:22;10.32;;;6.53;;
38465;SDS011;24244;51.950;5.902;2023-04-24T05:25:49;12.48;;;6.97;;
38465;SDS011;24244;51.950;5.902;2023-04-24T05:28:16;10.00;;;5.88;;
38465;SDS011;24244;51.950;5.902;2023-04-24T05:30:43;9.13;;;5.88;;
38465;SDS011;24244;51.950;5.902;2023-04-24T05:33:10;11.32;;;6.20;;
38465;SDS011;24244;51.950;5.902;2023-04-24T05:35:37;8.70;;;5.32;;
38465;SDS011;24244;51.950;5.902;2023-04-24T05:38:06;9.55;;;6.00;;
38465;SDS011;24244;51.950;5.902;2023-04-24T05:40:33;8.82;;;5.28;;
38465;SDS011;24244;51.950;5.902;2023-04-24T05:43:00;7.90;;;4.90;;
38465;SDS011;24244;51.950;5.902;2023-04-24T05:45:27;7.70;;;4.70;;
38465;SDS011;24244;51.950;5.902;2023-04-24T05:47:54;8.02;;;4.68;;
38465;SDS011;24244;51.950;5.902;2023-04-24T05:50:21;8.00;;;4.43;;
38465;SDS011;24244;51.950;5.902;2023-04-24T05:52:48;7.32;;;4.70;;
38465;SDS011;24244;51.950;5.902;2023-04-24T05:55:16;7.70;;;4.43;;
38465;SDS011;24244;51.950;5.902;2023-04-24T05:57:44;7.90;;;4.07;;
38465;SDS011;24244;51.950;5.902;2023-04-24T06:00:12;5.97;;;3.80;;
38465;SDS011;24244;51.950;5.902;2023-04-24T06:02:39;7.15;;;4.28;;
38465;SDS011;24244;51.950;5.902;2023-04-24T06:05:06;6.22;;;4.18;;
38465;SDS011;24244;51.950;5.902;2023-04-24T06:07:34;7.20;;;4.15;;
38465;SDS011;24244;51.950;5.902;2023-04-24T06:10:01;7.28;;;4.05;;
38465;SDS011;24244;51.950;5.902;2023-04-24T06:12:30;7.93;;;3.63;;
38465;SDS011;24244;51.950;5.902;2023-04-24T06:14:57;6.65;;;3.53;;
38465;SDS011;24244;51.950;5.902;2023-04-24T06:17:24;6.60;;;3.85;;
38465;SDS011;24244;51.950;5.902;2023-04-24T06:19:54;7.10;;;3.92;;
38465;SDS011;24244;51.950;5.902;2023-04-24T06:22:20;6.03;;;3.50;;
38465;SDS011;24244;51.950;5.902;2023-04-24T06:24:47;5.85;;;3.50;;
38465;SDS011;24244;51.950;5.902;2023-04-24T06:27:14;5.63;;;3.30;;
38465;SDS011;24244;51.950;5.902;2023-04-24T06:29:43;6.43;;;3.53;;
38465;SDS011;24244;51.950;5.902;2023-04-24T06:32:10;6.25;;;3.22;;
38465;SDS011;24244;51.950;5.902;2023-04-24T06:34:36;6.57;;;3.75;;
38465;SDS011;24244;51.950;5.902;2023-04-24T06:37:03;5.50;;;3.40;;
38465;SDS011;24244;51.950;5.902;2023-04-24T06:39:30;6.45;;;3.47;;
38465;SDS011;24244;51.950;5.902;2023-04-24T06:41:57;5.00;;;3.00;;
38465;SDS011;24244;51.950;5.902;2023-04-24T06:44:24;5.68;;;3.25;;
38465;SDS011;24244;51.950;5.902;2023-04-24T06:46:55;4.93;;;2.50;;
38465;SDS011;24244;51.950;5.902;2023-04-24T06:49:22;4.43;;;2.50;;
38465;SDS011;24244;51.950;5.902;2023-04-24T06:51:49;4.80;;;2.35;;
38465;SDS011;24244;51.950;5.902;2023-04-24T06:54:16;6.82;;;3.33;;
38465;SDS011;24244;51.950;5.902;2023-04-24T06:56:43;5.15;;;2.65;;
38465;SDS011;24244;51.950;5.902;2023-04-24T06:59:11;4.50;;;2.40;;
38465;SDS011;24244;51.950;5.902;2023-04-24T07:01:38;3.88;;;2.22;;
38465;SDS011;24244;51.950;5.902;2023-04-24T07:04:06;4.82;;;3.03;;
38465;SDS011;24244;51.950;5.902;2023-04-24T07:06:34;4.18;;;2.20;;
38465;SDS011;24244;51.950;5.902;2023-04-24T07:09:02;4.45;;;2.30;;
38465;SDS011;24244;51.950;5.902;2023-04-24T07:11:32;3.50;;;1.85;;
38465;SDS011;24244;51.950;5.902;2023-04-24T07:13:59;3.70;;;2.17;;
38465;SDS011;24244;51.950;5.902;2023-04-24T07:16:26;3.10;;;1.50;;
38465;SDS011;24244;51.950;5.902;2023-04-24T07:18:53;3.13;;;1.52;;
38465;SDS011;24244;51.950;5.902;2023-04-24T07:21:21;2.20;;;1.10;;
38465;SDS011;24244;51.950;5.902;2023-04-24T07:23:48;2.97;;;1.27;;
38465;SDS011;24244;51.950;5.902;2023-04-24T07:26:15;2.25;;;1.10;;
38465;SDS011;24244;51.950;5.902;2023-04-24T07:28:42;2.80;;;1.42;;
38465;SDS011;24244;51.950;5.902;2023-04-24T07:31:11;2.45;;;0.88;;
38465;SDS011;24244;51.950;5.902;2023-04-24T07:33:38;2.85;;;0.70;;
38465;SDS011;24244;51.950;5.902;2023-04-24T07:36:05;1.90;;;0.80;;
38465;SDS011;24244;51.950;5.902;2023-04-24T07:38:33;1.98;;;0.50;;
38465;SDS011;24244;51.950;5.902;2023-04-24T07:41:00;1.13;;;0.43;;
38465;SDS011;24244;51.950;5.902;2023-04-24T07:43:27;1.42;;;0.50;;
38465;SDS011;24244;51.950;5.902;2023-04-24T07:45:54;1.20;;;0.50;;
38465;SDS011;24244;51.950;5.902;2023-04-24T07:48:21;0.70;;;0.22;;
38465;SDS011;24244;51.950;5.902;2023-04-24T07:50:48;2.05;;;0.60;;
38465;SDS011;24244;51.950;5.902;2023-04-24T07:53:16;2.55;;;1.15;;
38465;SDS011;24244;51.950;5.902;2023-04-24T07:55:44;2.20;;;1.02;;
38465;SDS011;24244;51.950;5.902;2023-04-24T07:58:11;2.55;;;1.17;;
38465;SDS011;24244;51.950;5.902;2023-04-24T08:00:38;3.45;;;1.67;;
38465;SDS011;24244;51.950;5.902;2023-04-24T08:03:05;3.92;;;2.35;;
38465;SDS011;24244;51.950;5.902;2023-04-24T08:05:37;5.35;;;2.72;;
38465;SDS011;24244;51.950;5.902;2023-04-24T08:08:06;5.55;;;2.92;;
38465;SDS011;24244;51.950;5.902;2023-04-24T08:10:33;5.18;;;2.72;;
38465;SDS011;24244;51.950;5.902;2023-04-24T08:13:02;5.93;;;2.88;;
38465;SDS011;24244;51.950;5.902;2023-04-24T08:15:29;5.13;;;2.60;;
38465;SDS011;24244;51.950;5.902;2023-04-24T08:17:59;5.38;;;3.35;;
38465;SDS011;24244;51.950;5.902;2023-04-24T08:20:26;6.13;;;3.35;;
38465;SDS011;24244;51.950;5.902;2023-04-24T08:22:53;5.00;;;2.75;;
38465;SDS011;24244;51.950;5.902;2023-04-24T08:25:21;5.47;;;3.25;;
38465;SDS011;24244;51.950;5.902;2023-04-24T08:27:49;6.43;;;3.25;;
38465;SDS011;24244;51.950;5.902;2023-04-24T08:30:17;7.72;;;3.47;;
38465;SDS011;24244;51.950;5.902;2023-04-24T08:32:44;6.97;;;3.10;;
38465;SDS011;24244;51.950;5.902;2023-04-24T08:35:11;7.15;;;3.05;;
38465;SDS011;24244;51.950;5.902;2023-04-24T08:37:38;6.30;;;3.35;;
38465;SDS011;24244;51.950;5.902;2023-04-24T08:40:06;6.82;;;3.30;;
38465;SDS011;24244;51.950;5.902;2023-04-24T08:42:38;5.10;;;3.00;;
38465;SDS011;24244;51.950;5.902;2023-04-24T08:45:07;6.28;;;3.10;;
38465;SDS011;24244;51.950;5.902;2023-04-24T08:47:36;6.03;;;2.70;;
38465;SDS011;24244;51.950;5.902;2023-04-24T08:50:05;5.53;;;2.83;;
38465;SDS011;24244;51.950;5.902;2023-04-24T08:52:33;5.55;;;2.58;;
38465;SDS011;24244;51.950;5.902;2023-04-24T08:55:01;5.13;;;2.92;;
38465;SDS011;24244;51.950;5.902;2023-04-24T08:57:29;6.85;;;3.25;;
38465;SDS011;24244;51.950;5.902;2023-04-24T08:59:58;6.35;;;3.03;;
38465;SDS011;24244;51.950;5.902;2023-04-24T09:02:27;7.50;;;3.55;;
38465;SDS011;24244;51.950;5.902;2023-04-24T09:04:57;5.53;;;3.15;;
38465;SDS011;24244;51.950;5.902;2023-04-24T09:07:24;6.88;;;2.80;;
38465;SDS011;24244;51.950;5.902;2023-04-24T09:09:53;7.65;;;2.67;;
38465;SDS011;24244;51.950;5.902;2023-04-24T09:12:21;4.43;;;1.88;;
38465;SDS011;24244;51.950;5.902;2023-04-24T09:14:48;6.18;;;2.40;;
38465;SDS011;24244;51.950;5.902;2023-04-24T09:17:16;4.43;;;2.15;;
38465;SDS011;24244;51.950;5.902;2023-04-24T09:19:43;5.45;;;2.10;;
38465;SDS011;24244;51.950;5.902;2023-04-24T09:22:11;4.60;;;1.67;;
38465;SDS011;24244;51.950;5.902;2023-04-24T09:24:38;5.47;;;2.08;;
38465;SDS011;24244;51.950;5.902;2023-04-24T09:27:05;3.38;;;1.50;;
38465;SDS011;24244;51.950;5.902;2023-04-24T09:29:36;4.30;;;1.58;;
38465;SDS011;24244;51.950;5.902;2023-04-24T09:32:17;3.08;;;1.55;;
38465;SDS011;24244;51.950;5.902;2023-04-24T09:34:46;5.95;;;1.90;;
38465;SDS011;24244;51.950;5.902;2023-04-24T09:37:20;5.45;;;1.55;;
38465;SDS011;24244;51.950;5.902;2023-04-24T09:40:07;6.13;;;2.10;;
38465;SDS011;24244;51.950;5.902;2023-04-24T09:42:34;9.40;;;2.00;;
38465;SDS011;24244;51.950;5.902;2023-04-24T09:45:02;4.28;;;1.73;;
38465;SDS011;24244;51.950;5.902;2023-04-24T09:47:39;4.40;;;1.38;;
38465;SDS011;24244;51.950;5.902;2023-04-24T09:50:13;5.45;;;1.20;;
38465;SDS011;24244;51.950;5.902;2023-04-24T09:52:44;4.35;;;1.73;;
38465;SDS011;24244;51.950;5.902;2023-04-24T09:55:16;6.78;;;1.70;;
38465;SDS011;24244;51.950;5.902;2023-04-24T09:57:48;4.32;;;1.40;;
38465;SDS011;24244;51.950;5.902;2023-04-24T10:00:21;5.75;;;1.98;;
38465;SDS011;24244;51.950;5.902;2023-04-24T10:02:55;4.00;;;1.10;;
38465;SDS011;24244;51.950;5.902;2023-04-24T10:05:24;3.75;;;1.13;;
38465;SDS011;24244;51.950;5.902;2023-04-24T10:07:57;4.78;;;1.58;;
38465;SDS011;24244;51.950;5.902;2023-04-24T10:10:26;1.85;;;0.80;;
38465;SDS011;24244;51.950;5.902;2023-04-24T10:12:53;5.05;;;1.50;;
38465;SDS011;24244;51.950;5.902;2023-04-24T10:15:21;3.92;;;1.38;;
38465;SDS011;24244;51.950;5.902;2023-04-24T10:17:48;5.93;;;1.92;;
38465;SDS011;24244;51.950;5.902;2023-04-24T10:20:19;2.35;;;0.88;;
38465;SDS011;24244;51.950;5.902;2023-04-24T10:22:47;3.85;;;1.00;;
38465;SDS011;24244;51.950;5.902;2023-04-24T10:25:17;3.47;;;1.02;;
38465;SDS011;24244;51.950;5.902;2023-04-24T10:27:46;5.03;;;0.90;;
38465;SDS011;24244;51.950;5.902;2023-04-24T10:30:14;2.85;;;1.10;;
38465;SDS011;24244;51.950;5.902;2023-04-24T10:32:41;6.72;;;2.10;;
38465;SDS011;24244;51.950;5.902;2023-04-24T10:35:08;5.35;;;1.20;;
38465;SDS011;24244;51.950;5.902;2023-04-24T10:37:36;5.35;;;1.30;;
38465;SDS011;24244;51.950;5.902;2023-04-24T10:40:06;3.42;;;1.42;;
38465;SDS011;24244;51.950;5.902;2023-04-24T10:42:36;6.28;;;1.55;;
38465;SDS011;24244;51.950;5.902;2023-04-24T10:45:15;4.20;;;1.40;;
38465;SDS011;24244;51.950;5.902;2023-04-24T10:47:43;6.15;;;1.30;;
38465;SDS011;24244;51.950;5.902;2023-04-24T10:50:17;4.88;;;1.48;;
38465;SDS011;24244;51.950;5.902;2023-04-24T10:52:45;2.97;;;1.10;;
38465;SDS011;24244;51.950;5.902;2023-04-24T10:55:12;6.65;;;1.30;;
38465;SDS011;24244;51.950;5.902;2023-04-24T10:57:49;3.47;;;0.93;;
38465;SDS011;24244;51.950;5.902;2023-04-24T11:00:28;2.70;;;0.90;;
38465;SDS011;24244;51.950;5.902;2023-04-24T11:02:55;2.97;;;1.00;;
38465;SDS011;24244;51.950;5.902;2023-04-24T11:08:27;4.03;;;0.93;;
38465;SDS011;24244;51.950;5.902;2023-04-24T11:10:56;2.63;;;0.70;;
38465;SDS011;24244;51.950;5.902;2023-04-24T11:16:31;3.10;;;0.60;;
38465;SDS011;24244;51.950;5.902;2023-04-24T11:19:01;2.55;;;0.60;;
38465;SDS011;24244;51.950;5.902;2023-04-24T11:21:31;2.47;;;0.75;;
38465;SDS011;24244;51.950;5.902;2023-04-24T11:23:58;2.67;;;0.60;;
38465;SDS011;24244;51.950;5.902;2023-04-24T11:26:25;1.48;;;0.50;;
38465;SDS011;24244;51.950;5.902;2023-04-24T11:29:05;2.17;;;0.52;;
38465;SDS011;24244;51.950;5.902;2023-04-24T11:31:35;2.53;;;0.43;;
38465;SDS011;24244;51.950;5.902;2023-04-24T11:34:07;1.75;;;0.30;;
38465;SDS011;24244;51.950;5.902;2023-04-24T11:36:35;2.25;;;0.68;;
38465;SDS011;24244;51.950;5.902;2023-04-24T11:39:02;2.58;;;0.55;;
38465;SDS011;24244;51.950;5.902;2023-04-24T11:41:29;1.52;;;0.20;;
38465;SDS011;24244;51.950;5.902;2023-04-24T11:43:56;1.05;;;0.40;;
38465;SDS011;24244;51.950;5.902;2023-04-24T11:46:26;2.72;;;0.32;;
38465;SDS011;24244;51.950;5.902;2023-04-24T11:48:56;1.98;;;0.55;;
38465;SDS011;24244;51.950;5.902;2023-04-24T11:51:24;0.88;;;0.20;;
38465;SDS011;24244;51.950;5.902;2023-04-24T11:56:30;1.13;;;0.20;;
38465;SDS011;24244;51.950;5.902;2023-04-24T11:58:56;1.08;;;0.30;;
38465;SDS011;24244;51.950;5.902;2023-04-24T12:01:23;1.05;;;0.20;;
38465;SDS011;24244;51.950;5.902;2023-04-24T12:03:50;0.95;;;0.40;;
38465;SDS011;24244;51.950;5.902;2023-04-24T12:06:27;1.88;;;0.80;;
38465;SDS011;24244;51.950;5.902;2023-04-24T12:08:54;1.48;;;0.30;;
38465;SDS011;24244;51.950;5.902;2023-04-24T12:11:29;1.48;;;0.30;;
38465;SDS011;24244;51.950;5.902;2023-04-24T12:13:56;1.17;;;0.30;;
38465;SDS011;24244;51.950;5.902;2023-04-24T12:16:23;2.15;;;0.40;;
38465;SDS011;24244;51.950;5.902;2023-04-24T12:18:52;2.25;;;0.30;;
38465;SDS011;24244;51.950;5.902;2023-04-24T12:21:19;1.73;;;0.35;;
38465;SDS011;24244;51.950;5.902;2023-04-24T12:23:49;1.52;;;0.35;;
38465;SDS011;24244;51.950;5.902;2023-04-24T12:26:17;2.20;;;0.70;;
38465;SDS011;24244;51.950;5.902;2023-04-24T12:28:46;2.22;;;0.40;;
38465;SDS011;24244;51.950;5.902;2023-04-24T12:31:14;1.65;;;0.30;;
38465;SDS011;24244;51.950;5.902;2023-04-24T12:33:42;2.80;;;0.40;;
38465;SDS011;24244;51.950;5.902;2023-04-24T12:36:10;2.33;;;0.40;;
38465;SDS011;24244;51.950;5.902;2023-04-24T12:38:38;2.13;;;0.40;;
38465;SDS011;24244;51.950;5.902;2023-04-24T12:41:12;0.75;;;0.30;;
38465;SDS011;24244;51.950;5.902;2023-04-24T12:43:50;1.10;;;0.30;;
38465;SDS011;24244;51.950;5.902;2023-04-24T12:46:19;2.08;;;0.40;;
38465;SDS011;24244;51.950;5.902;2023-04-24T12:48:48;1.52;;;0.82;;
38465;SDS011;24244;51.950;5.902;2023-04-24T12:51:14;2.17;;;0.40;;
38465;SDS011;24244;51.950;5.902;2023-04-24T12:53:41;1.05;;;0.32;;
38465;SDS011;24244;51.950;5.902;2023-04-24T12:56:15;2.88;;;0.50;;
38465;SDS011;24244;51.950;5.902;2023-04-24T12:58:43;2.25;;;0.45;;
38465;SDS011;24244;51.950;5.902;2023-04-24T13:01:10;3.60;;;0.40;;
38465;SDS011;24244;51.950;5.902;2023-04-24T13:03:37;0.93;;;0.32;;
38465;SDS011;24244;51.950;5.902;2023-04-24T13:06:03;2.03;;;0.30;;
38465;SDS011;24244;51.950;5.902;2023-04-24T13:08:30;1.25;;;0.43;;
38465;SDS011;24244;51.950;5.902;2023-04-24T13:10:57;1.10;;;0.32;;
38465;SDS011;24244;51.950;5.902;2023-04-24T13:13:25;1.10;;;0.25;;
38465;SDS011;24244;51.950;5.902;2023-04-24T13:15:52;0.88;;;0.20;;
38465;SDS011;24244;51.950;5.902;2023-04-24T13:18:18;1.05;;;0.50;;
38465;SDS011;24244;51.950;5.902;2023-04-24T13:20:45;0.85;;;0.25;;
38465;SDS011;24244;51.950;5.902;2023-04-24T13:23:13;2.35;;;0.50;;
38465;SDS011;24244;51.950;5.902;2023-04-24T13:25:41;2.97;;;0.47;;
38465;SDS011;24244;51.950;5.902;2023-04-24T13:28:08;2.35;;;0.40;;
38465;SDS011;24244;51.950;5.902;2023-04-24T13:30:36;2.60;;;0.45;;
38465;SDS011;24244;51.950;5.902;2023-04-24T13:33:03;1.48;;;0.40;;
38465;SDS011;24244;51.950;5.902;2023-04-24T13:35:30;1.95;;;0.55;;
38465;SDS011;24244;51.950;5.902;2023-04-24T13:37:57;2.47;;;0.45;;
38465;SDS011;24244;51.950;5.902;2023-04-24T13:40:24;3.75;;;0.75;;
38465;SDS011;24244;51.950;5.902;2023-04-24T13:42:51;2.67;;;0.63;;
38465;SDS011;24244;51.950;5.902;2023-04-24T13:45:18;1.77;;;0.52;;
38465;SDS011;24244;51.950;5.902;2023-04-24T13:47:52;3.17;;;0.57;;
38465;SDS011;24244;51.950;5.902;2023-04-24T13:50:20;4.93;;;0.70;;
38465;SDS011;24244;51.950;5.902;2023-04-24T13:52:47;4.57;;;0.80;;
38465;SDS011;24244;51.950;5.902;2023-04-24T13:55:14;3.63;;;0.70;;
38465;SDS011;24244;51.950;5.902;2023-04-24T13:57:40;2.00;;;0.50;;
38465;SDS011;24244;51.950;5.902;2023-04-24T14:00:07;5.30;;;0.93;;
38465;SDS011;24244;51.950;5.902;2023-04-24T14:02:37;3.97;;;0.60;;
38465;SDS011;24244;51.950;5.902;2023-04-24T14:05:05;3.85;;;0.70;;
38465;SDS011;24244;51.950;5.902;2023-04-24T14:07:33;1.95;;;0.73;;
38465;SDS011;24244;51.950;5.902;2023-04-24T14:09:59;3.53;;;1.15;;
38465;SDS011;24244;51.950;5.902;2023-04-24T14:12:26;1.40;;;0.60;;
38465;SDS011;24244;51.950;5.902;2023-04-24T14:14:53;3.20;;;0.80;;
38465;SDS011;24244;51.950;5.902;2023-04-24T14:17:20;2.13;;;0.57;;
38465;SDS011;24244;51.950;5.902;2023-04-24T14:19:47;3.25;;;0.60;;
38465;SDS011;24244;51.950;5.902;2023-04-24T14:22:16;3.17;;;0.70;;
38465;SDS011;24244;51.950;5.902;2023-04-24T14:24:43;3.03;;;1.20;;
38465;SDS011;24244;51.950;5.902;2023-04-24T14:27:09;3.42;;;0.77;;
38465;SDS011;24244;51.950;5.902;2023-04-24T14:29:36;5.80;;;1.15;;
38465;SDS011;24244;51.950;5.902;2023-04-24T14:32:03;6.45;;;1.50;;
38465;SDS011;24244;51.950;5.902;2023-04-24T14:34:30;3.08;;;1.00;;
38465;SDS011;24244;51.950;5.902;2023-04-24T14:36:57;3.85;;;0.70;;
38465;SDS011;24244;51.950;5.902;2023-04-24T14:39:26;3.28;;;1.05;;
38465;SDS011;24244;51.950;5.902;2023-04-24T14:41:53;4.47;;;0.80;;
38465;SDS011;24244;51.950;5.902;2023-04-24T14:44:20;2.63;;;0.73;;
38465;SDS011;24244;51.950;5.902;2023-04-24T14:46:47;3.90;;;0.98;;
38465;SDS011;24244;51.950;5.902;2023-04-24T14:49:15;4.13;;;0.80;;
38465;SDS011;24244;51.950;5.902;2023-04-24T14:51:41;2.53;;;0.65;;
38465;SDS011;24244;51.950;5.902;2023-04-24T14:54:08;3.60;;;0.82;;
38465;SDS011;24244;51.950;5.902;2023-04-24T14:56:36;2.15;;;0.75;;
38465;SDS011;24244;51.950;5.902;2023-04-24T14:59:05;4.72;;;1.02;;
38465;SDS011;24244;51.950;5.902;2023-04-24T15:01:33;4.28;;;1.20;;